Time;durP1;ratioP1;P1;durP2;ratioP2;P2;SDS_P1;SDS_P2;PMS_P1;PMS_P2;Temp;Humidity;BMP_temperature;BMP_pressure;BME280_temperature;BME280_humidity;BME280_pressure;Samples;Min_cycle;Max_cycle;Signal;HPM_P1;HPM_P2
2023/01/23 00:01:10;;;;;;;11.27;4.20;;;3.10;99.90;;;;;;5093140;28;20815;-80
2023/01/23 00:03:35;;;;;;;9.25;4.38;;;3.20;99.90;;;;;;5098572;28;21017;-80
2023/01/23 00:06:06;;;;;;;10.20;4.55;;;3.20;99.90;;;;;;5086936;28;20405;-80
2023/01/23 00:08:33;;;;;;;8.37;4.10;;;3.20;99.90;;;;;;5070436;28;20406;-80
2023/01/23 00:10:58;;;;;;;9.98;3.58;;;3.20;99.90;;;;;;5099705;28;20408;-80
2023/01/23 00:13:24;;;;;;;8.88;4.03;;;3.20;99.90;;;;;;5070298;28;20760;-80
2023/01/23 00:15:50;;;;;;;9.47;3.83;;;3.20;99.90;;;;;;5087073;28;20408;-80
2023/01/23 00:18:16;;;;;;;9.63;3.90;;;3.20;99.90;;;;;;5069614;28;20430;-80
2023/01/23 00:20:42;;;;;;;10.80;3.97;;;3.20;99.90;;;;;;5070310;28;20410;-80
2023/01/23 00:23:08;;;;;;;8.75;3.95;;;3.20;99.90;;;;;;5086983;28;20467;-79
2023/01/23 00:25:34;;;;;;;8.23;3.92;;;3.20;99.90;;;;;;5087130;28;20437;-80
2023/01/23 00:28:02;;;;;;;8.68;3.88;;;3.20;99.90;;;;;;5087059;28;20409;-80
2023/01/23 00:30:27;;;;;;;8.50;3.97;;;3.20;99.90;;;;;;5070169;28;20485;-80
2023/01/23 00:32:53;;;;;;;9.98;3.78;;;3.20;99.90;;;;;;5086953;28;20430;-79
2023/01/23 00:35:19;;;;;;;10.93;4.05;;;3.20;99.90;;;;;;5071210;28;20420;-80
2023/01/23 00:37:45;;;;;;;9.00;3.72;;;3.20;99.90;;;;;;5086933;28;20426;-79
2023/01/23 00:40:12;;;;;;;9.33;3.90;;;3.20;99.90;;;;;;5087074;28;20419;-80
2023/01/23 00:42:38;;;;;;;11.02;4.32;;;3.20;99.90;;;;;;5086507;28;20402;-80
2023/01/23 00:45:04;;;;;;;12.05;4.15;;;3.20;99.90;;;;;;5087371;28;20405;-80
2023/01/23 00:47:30;;;;;;;7.82;3.55;;;3.20;99.90;;;;;;5087198;28;20398;-80
2023/01/23 00:49:57;;;;;;;8.20;4.13;;;3.20;99.90;;;;;;5071135;28;20406;-80
2023/01/23 00:52:24;;;;;;;8.77;3.65;;;3.20;99.90;;;;;;5087466;28;20398;-80
2023/01/23 00:54:49;;;;;;;9.15;4.30;;;3.20;99.90;;;;;;5066128;28;20417;-80
2023/01/23 00:57:15;;;;;;;7.97;3.70;;;3.20;99.90;;;;;;5075592;28;20792;-80
2023/01/23 00:59:40;;;;;;;11.23;4.00;;;3.20;99.90;;;;;;5084551;28;20473;-80
2023/01/23 01:02:06;;;;;;;11.10;4.00;;;3.20;99.90;;;;;;5106169;28;20500;-80
2023/01/23 01:04:32;;;;;;;9.27;3.87;;;3.20;99.90;;;;;;5089246;28;20434;-79
2023/01/23 01:06:57;;;;;;;9.27;3.63;;;3.20;99.90;;;;;;5069086;28;20437;-79
2023/01/23 01:09:23;;;;;;;6.90;3.67;;;3.20;99.90;;;;;;5068984;28;20984;-80
2023/01/23 01:11:50;;;;;;;7.85;3.55;;;3.20;99.90;;;;;;5086835;28;20406;-80
2023/01/23 01:14:15;;;;;;;6.63;3.22;;;3.20;99.90;;;;;;5087892;28;20403;-80
2023/01/23 01:16:44;;;;;;;8.38;3.40;;;3.20;99.90;;;;;;5086052;28;20439;-80
2023/01/23 01:19:11;;;;;;;7.53;3.50;;;3.20;99.90;;;;;;5069587;28;20490;-80
2023/01/23 01:21:38;;;;;;;6.57;3.42;;;3.20;99.90;;;;;;5086018;28;20432;-79
2023/01/23 01:24:04;;;;;;;10.10;3.50;;;3.20;99.90;;;;;;5087319;28;20693;-80
2023/01/23 01:26:30;;;;;;;10.07;3.60;;;3.20;99.90;;;;;;5069315;28;20414;-80
2023/01/23 01:28:56;;;;;;;7.50;3.37;;;3.20;99.90;;;;;;5086985;28;20402;-79
2023/01/23 01:31:22;;;;;;;7.87;3.53;;;3.20;99.90;;;;;;5084180;28;20468;-79
2023/01/23 01:33:49;;;;;;;7.43;3.40;;;3.20;99.90;;;;;;5084726;28;20695;-80
2023/01/23 01:36:17;;;;;;;9.65;3.55;;;3.20;99.90;;;;;;5084999;28;20981;-79
2023/01/23 01:38:43;;;;;;;8.40;3.50;;;3.20;99.90;;;;;;5084020;28;20410;-80
2023/01/23 01:41:11;;;;;;;8.65;3.63;;;3.20;99.90;;;;;;5084120;28;20402;-80
2023/01/23 01:43:37;;;;;;;8.57;3.55;;;3.20;99.90;;;;;;5069762;28;20402;-80
2023/01/23 01:46:05;;;;;;;8.23;3.67;;;3.20;99.90;;;;;;5084397;28;20908;-80
2023/01/23 01:49:00;;;;;;;9.57;3.92;;;3.20;99.90;;;;;;5083686;28;20437;-80
2023/01/23 01:51:44;;;;;;;8.73;3.78;;;3.20;99.90;;;;;;5031571;28;20429;-79
2023/01/23 01:54:28;;;;;;;8.25;4.18;;;3.20;99.90;;;;;;5089165;28;20471;-80
2023/01/23 01:56:59;;;;;;;8.25;4.07;;;3.20;99.90;;;;;;5071695;28;20433;-80
2023/01/23 01:59:28;;;;;;;9.40;4.07;;;3.20;99.90;;;;;;5102631;28;20404;-80
2023/01/23 02:02:03;;;;;;;8.13;3.70;;;3.20;99.90;;;;;;5072756;28;20458;-80
2023/01/23 02:04:31;;;;;;;7.57;3.90;;;3.20;99.90;;;;;;5072789;28;20417;-80
2023/01/23 02:07:01;;;;;;;9.55;4.18;;;3.20;99.90;;;;;;5072061;28;20923;-80
2023/01/23 02:09:27;;;;;;;9.20;4.05;;;3.20;99.90;;;;;;5072696;28;20402;-80
2023/01/23 02:11:53;;;;;;;7.57;4.22;;;3.20;99.90;;;;;;5088657;28;20402;-80
2023/01/23 02:14:19;;;;;;;10.15;4.38;;;3.20;99.90;;;;;;5088934;28;20402;-80
2023/01/23 02:16:49;;;;;;;7.63;3.90;;;3.20;99.90;;;;;;5088453;28;20434;-80
2023/01/23 02:19:58;;;;;;;8.97;4.53;;;3.20;99.90;;;;;;5072047;28;20945;-80
2023/01/23 02:22:45;;;;;;;10.40;4.60;;;3.20;99.90;;;;;;5088906;28;20438;-80
2023/01/23 02:25:33;;;;;;;7.95;4.03;;;3.20;99.90;;;;;;5072064;28;20414;-79
2023/01/23 02:28:00;;;;;;;9.27;4.35;;;3.20;99.90;;;;;;5078608;28;20453;-80
2023/01/23 02:30:26;;;;;;;9.75;4.60;;;3.20;99.90;;;;;;5089356;28;20441;-80
2023/01/23 02:32:51;;;;;;;12.25;4.80;;;3.20;99.90;;;;;;5088248;28;20806;-80
2023/01/23 02:35:29;;;;;;;9.27;3.73;;;3.20;99.90;;;;;;5088907;28;20466;-80
2023/01/23 02:37:59;;;;;;;10.02;4.18;;;3.20;99.90;;;;;;5080801;28;20514;-80
2023/01/23 02:40:36;;;;;;;9.93;3.95;;;3.20;99.90;;;;;;5089865;28;21155;-80
2023/01/23 02:43:04;;;;;;;7.72;3.67;;;3.20;99.90;;;;;;5089504;28;20414;-80
2023/01/23 02:45:30;;;;;;;8.55;3.58;;;3.20;99.90;;;;;;5085941;28;20420;-80
2023/01/23 02:47:56;;;;;;;8.27;3.35;;;3.20;99.90;;;;;;5089740;28;20492;-80
2023/01/23 02:50:22;;;;;;;9.00;3.53;;;3.20;99.90;;;;;;5086710;28;20414;-79
2023/01/23 02:52:49;;;;;;;7.50;3.45;;;3.20;99.90;;;;;;5088806;28;20409;-80
2023/01/23 02:55:16;;;;;;;11.02;3.83;;;3.20;99.90;;;;;;5084318;28;20408;-79
2023/01/23 02:57:44;;;;;;;10.13;3.75;;;3.20;99.90;;;;;;5094615;28;20547;-80
2023/01/23 03:00:21;;;;;;;10.75;3.67;;;3.20;99.90;;;;;;5081690;28;20404;-79
2023/01/23 03:02:49;;;;;;;9.10;3.58;;;3.20;99.90;;;;;;5107320;28;20401;-80
2023/01/23 03:05:16;;;;;;;9.07;3.50;;;3.20;99.90;;;;;;5087626;28;20779;-80
2023/01/23 03:07:42;;;;;;;8.70;3.60;;;3.20;99.90;;;;;;5089791;28;20405;-80
2023/01/23 03:10:09;;;;;;;7.65;3.78;;;3.20;99.90;;;;;;5089795;28;20410;-80
2023/01/23 03:12:42;;;;;;;10.27;3.93;;;3.20;99.90;;;;;;5089647;28;20492;-80
2023/01/23 03:15:08;;;;;;;8.30;3.80;;;3.20;99.90;;;;;;5090560;28;20398;-80
2023/01/23 03:17:35;;;;;;;6.53;3.72;;;3.20;99.90;;;;;;5090324;28;20442;-80
2023/01/23 03:20:03;;;;;;;9.73;3.90;;;3.20;99.90;;;;;;5089008;28;20986;-80
2023/01/23 03:22:28;;;;;;;7.63;3.90;;;3.20;99.90;;;;;;5073959;28;20416;-80
2023/01/23 03:24:56;;;;;;;10.43;3.90;;;3.20;99.90;;;;;;5089154;28;20459;-80
2023/01/23 03:27:22;;;;;;;8.00;3.90;;;3.20;99.90;;;;;;5073334;28;21018;-80
2023/01/23 03:32:32;;;;;;;10.48;4.00;;;3.20;99.90;;;;;;5087832;28;20436;-80
2023/01/23 03:34:58;;;;;;;8.97;4.07;;;3.20;99.90;;;;;;5090481;28;21102;-80
2023/01/23 03:37:24;;;;;;;8.30;4.55;;;3.20;99.90;;;;;;5091626;28;20490;-80
2023/01/23 03:42:34;;;;;;;9.32;4.45;;;3.20;99.90;;;;;;5080683;28;20410;-80
2023/01/23 03:45:00;;;;;;;7.32;4.00;;;3.20;99.90;;;;;;5082972;28;20414;-80
2023/01/23 03:47:26;;;;;;;8.23;4.40;;;3.20;99.90;;;;;;5071468;28;20414;-80
2023/01/23 03:49:52;;;;;;;9.07;4.40;;;3.20;99.90;;;;;;5089843;28;20412;-80
2023/01/23 03:52:18;;;;;;;10.33;4.40;;;3.20;99.90;;;;;;5088514;28;20446;-80
2023/01/23 03:54:43;;;;;;;10.63;4.93;;;3.10;99.90;;;;;;5088284;28;20486;-80
2023/01/23 03:57:09;;;;;;;11.18;5.25;;;3.10;99.90;;;;;;5089996;28;20444;-80
2023/01/23 03:59:35;;;;;;;9.50;4.70;;;3.10;99.90;;;;;;5070580;28;20407;-80
2023/01/23 04:02:03;;;;;;;9.07;4.93;;;3.10;99.90;;;;;;5064257;28;20414;-80
2023/01/23 04:04:30;;;;;;;10.18;5.05;;;3.20;99.90;;;;;;5065903;28;20479;-80
2023/01/23 04:06:56;;;;;;;10.50;4.43;;;3.20;99.90;;;;;;5076165;28;20407;-79
2023/01/23 04:09:26;;;;;;;9.70;4.47;;;3.20;99.90;;;;;;5103822;28;20768;-80
2023/01/23 04:11:53;;;;;;;10.80;4.60;;;3.10;99.90;;;;;;5089647;28;20443;-80
2023/01/23 04:14:20;;;;;;;8.05;4.80;;;3.10;99.90;;;;;;5068683;28;20442;-80
2023/01/23 04:16:45;;;;;;;9.73;4.20;;;3.10;99.90;;;;;;5077280;28;20435;-80
2023/01/23 04:19:11;;;;;;;10.68;4.75;;;3.10;99.90;;;;;;5071576;28;20739;-80
2023/01/23 04:21:37;;;;;;;8.15;4.60;;;3.10;99.90;;;;;;5087781;28;20414;-80
2023/01/23 04:24:02;;;;;;;8.63;4.30;;;3.10;99.90;;;;;;5087784;28;20495;-80
2023/01/23 04:26:28;;;;;;;8.32;4.25;;;3.10;99.90;;;;;;5071118;28;20819;-80
2023/01/23 04:28:53;;;;;;;8.37;4.67;;;3.10;99.90;;;;;;5087538;28;20410;-80
2023/01/23 04:31:19;;;;;;;8.77;4.37;;;3.10;99.90;;;;;;5085350;28;20406;-80
2023/01/23 04:33:45;;;;;;;8.13;4.05;;;3.10;99.90;;;;;;5068807;28;20411;-80
2023/01/23 04:36:10;;;;;;;7.63;3.87;;;3.10;99.90;;;;;;5094196;28;20444;-80
2023/01/23 04:38:36;;;;;;;7.97;4.28;;;3.10;99.90;;;;;;5107788;28;20417;-80
2023/01/23 04:41:03;;;;;;;9.70;4.47;;;3.10;99.90;;;;;;5106518;28;20408;-80
2023/01/23 04:43:29;;;;;;;7.87;4.00;;;3.10;99.90;;;;;;5107697;28;20405;-80
2023/01/23 04:45:55;;;;;;;7.15;4.30;;;3.10;99.90;;;;;;5088114;28;20552;-80
2023/01/23 04:48:24;;;;;;;8.38;4.43;;;3.10;99.90;;;;;;5087700;28;20484;-80
2023/01/23 04:50:50;;;;;;;8.73;4.50;;;3.10;99.90;;;;;;5087646;28;21627;-80
2023/01/23 04:53:16;;;;;;;8.85;4.80;;;3.10;99.90;;;;;;5070887;28;20406;-80
2023/01/23 04:55:42;;;;;;;7.50;5.07;;;3.10;99.90;;;;;;5088112;28;20412;-80
2023/01/23 04:58:10;;;;;;;9.50;5.40;;;3.10;99.90;;;;;;5087818;28;20453;-80
2023/01/23 05:00:36;;;;;;;9.20;5.43;;;3.10;99.90;;;;;;5087732;28;20421;-80
2023/01/23 05:03:02;;;;;;;9.98;5.05;;;3.10;99.90;;;;;;5087641;28;20410;-80
2023/01/23 05:05:27;;;;;;;9.90;5.67;;;3.10;99.90;;;;;;5085683;28;21523;-80
2023/01/23 05:07:53;;;;;;;10.87;5.87;;;3.10;99.90;;;;;;5075830;28;21353;-80
2023/01/23 05:10:19;;;;;;;10.98;5.90;;;3.10;99.90;;;;;;5089232;28;20406;-80
2023/01/23 05:12:45;;;;;;;10.15;5.93;;;3.10;99.90;;;;;;5097653;28;20425;-78
2023/01/23 05:15:11;;;;;;;11.30;6.00;;;3.10;99.90;;;;;;5071019;28;20457;-78
2023/01/23 05:17:36;;;;;;;12.43;6.53;;;3.10;99.90;;;;;;5087912;28;20447;-78
2023/01/23 05:20:03;;;;;;;11.83;6.40;;;3.10;99.90;;;;;;5088208;28;20919;-78
2023/01/23 05:22:29;;;;;;;11.60;6.82;;;3.10;99.90;;;;;;5088363;28;20452;-78
2023/01/23 05:24:55;;;;;;;12.80;6.47;;;3.10;99.90;;;;;;5088705;28;20523;-78
2023/01/23 05:27:21;;;;;;;10.05;6.70;;;3.10;99.90;;;;;;5069629;28;20489;-78
2023/01/23 05:29:46;;;;;;;9.82;6.78;;;3.10;99.90;;;;;;5088525;28;20399;-78
2023/01/23 05:32:12;;;;;;;14.03;6.77;;;3.10;99.90;;;;;;5087541;28;20413;-78
2023/01/23 05:34:38;;;;;;;12.02;7.10;;;3.10;99.90;;;;;;5086690;28;20409;-78
2023/01/23 05:37:03;;;;;;;12.43;7.22;;;3.10;99.90;;;;;;5086791;28;20503;-78
2023/01/23 05:39:31;;;;;;;11.95;7.45;;;3.10;99.90;;;;;;5069703;28;20434;-78
2023/01/23 05:41:57;;;;;;;11.48;7.18;;;3.10;99.90;;;;;;5069804;28;20406;-78
2023/01/23 05:44:23;;;;;;;11.03;6.70;;;3.10;99.90;;;;;;5086426;28;20404;-78
2023/01/23 05:46:48;;;;;;;13.52;7.28;;;3.10;99.90;;;;;;5086490;28;20413;-78
2023/01/23 05:49:14;;;;;;;11.57;6.75;;;3.10;99.90;;;;;;5067793;28;20531;-78
2023/01/23 05:51:40;;;;;;;11.85;6.82;;;3.10;99.90;;;;;;5085987;28;20425;-78
2023/01/23 05:54:06;;;;;;;12.23;7.03;;;3.10;99.90;;;;;;5086586;28;20463;-79
2023/01/23 05:56:31;;;;;;;13.93;7.07;;;3.10;99.90;;;;;;5086466;28;20402;-78
2023/01/23 05:58:57;;;;;;;13.07;7.47;;;3.10;99.90;;;;;;5091345;28;20406;-78
2023/01/23 06:01:24;;;;;;;12.05;6.97;;;3.10;99.90;;;;;;5095137;28;20411;-78
2023/01/23 06:03:49;;;;;;;11.02;7.22;;;3.10;99.90;;;;;;5092848;28;20444;-78
2023/01/23 06:06:15;;;;;;;13.95;6.88;;;3.10;99.90;;;;;;5086452;28;20413;-78
2023/01/23 06:08:41;;;;;;;12.13;6.30;;;3.10;99.90;;;;;;5069490;28;20406;-78
2023/01/23 06:11:06;;;;;;;13.53;7.23;;;3.10;99.90;;;;;;5086515;28;20495;-78
2023/01/23 06:13:32;;;;;;;11.93;6.65;;;3.10;99.90;;;;;;5069771;28;21418;-79
2023/01/23 06:15:58;;;;;;;10.37;6.30;;;3.10;99.90;;;;;;5070459;28;20402;-78
2023/01/23 06:18:24;;;;;;;10.23;6.10;;;3.10;99.90;;;;;;5071362;28;20505;-78
2023/01/23 06:20:49;;;;;;;10.97;6.67;;;3.10;99.90;;;;;;5089372;28;20836;-78
2023/01/23 06:23:16;;;;;;;11.13;6.85;;;3.00;99.90;;;;;;5088163;28;20405;-78
2023/01/23 06:25:41;;;;;;;9.95;6.45;;;3.10;99.90;;;;;;5087278;28;20912;-78
2023/01/23 06:28:08;;;;;;;11.23;6.93;;;3.10;99.90;;;;;;5086875;28;20421;-78
2023/01/23 06:30:33;;;;;;;9.65;6.25;;;3.10;99.90;;;;;;5085365;28;20410;-79
2023/01/23 06:32:59;;;;;;;11.15;6.47;;;3.00;99.90;;;;;;5087712;28;20448;-78
2023/01/23 06:35:25;;;;;;;12.10;6.68;;;3.10;99.90;;;;;;5068689;28;20489;-78
2023/01/23 06:37:50;;;;;;;13.30;7.03;;;3.00;99.90;;;;;;5085928;28;20841;-78
2023/01/23 06:40:16;;;;;;;11.17;6.80;;;3.10;99.90;;;;;;5089553;28;20894;-78
2023/01/23 06:42:42;;;;;;;10.02;6.32;;;3.10;99.90;;;;;;5092548;28;20433;-78
2023/01/23 06:45:09;;;;;;;9.57;6.18;;;3.10;99.90;;;;;;5074178;28;20412;-78
2023/01/23 06:47:36;;;;;;;9.73;5.80;;;3.00;99.90;;;;;;5090635;28;20409;-78
2023/01/23 06:50:03;;;;;;;11.38;6.07;;;3.10;99.90;;;;;;5090204;28;21152;-80
2023/01/23 06:52:29;;;;;;;9.02;5.88;;;3.00;99.90;;;;;;5092076;28;20437;-80
2023/01/23 06:54:58;;;;;;;10.75;5.68;;;3.00;99.90;;;;;;5090194;28;20492;-78
2023/01/23 06:57:23;;;;;;;8.88;5.40;;;3.00;99.90;;;;;;5069948;28;20449;-78
2023/01/23 06:59:49;;;;;;;9.50;6.20;;;3.00;99.90;;;;;;5068307;28;20429;-78
2023/01/23 07:02:15;;;;;;;8.27;4.87;;;3.00;99.90;;;;;;5078709;28;20801;-78
2023/01/23 07:04:40;;;;;;;8.80;5.00;;;3.00;99.90;;;;;;5090478;28;20402;-78
2023/01/23 07:07:06;;;;;;;9.00;5.93;;;3.00;99.90;;;;;;5089883;28;20402;-78
2023/01/23 07:09:32;;;;;;;7.87;4.97;;;3.00;99.90;;;;;;5089558;28;20417;-78
2023/01/23 07:11:57;;;;;;;8.27;5.43;;;3.00;99.90;;;;;;5089477;28;20402;-78
2023/01/23 07:14:25;;;;;;;8.52;5.70;;;3.00;99.90;;;;;;5073629;28;20481;-78
2023/01/23 07:16:53;;;;;;;7.00;4.03;;;3.00;99.90;;;;;;5074127;28;20434;-78
2023/01/23 07:19:19;;;;;;;6.55;4.63;;;3.00;99.90;;;;;;5075797;28;20410;-78
2023/01/23 07:21:47;;;;;;;7.25;4.43;;;3.00;99.90;;;;;;5073697;28;20417;-78
2023/01/23 07:24:12;;;;;;;6.07;4.25;;;3.00;99.90;;;;;;5088069;28;20999;-78
2023/01/23 07:26:38;;;;;;;5.13;3.63;;;3.00;99.90;;;;;;5091351;28;20402;-78
2023/01/23 07:29:06;;;;;;;5.03;3.10;;;3.00;99.90;;;;;;5087652;28;20448;-78
2023/01/23 07:31:31;;;;;;;7.03;3.88;;;3.00;99.90;;;;;;5089039;28;20414;-78
2023/01/23 07:33:57;;;;;;;5.68;3.08;;;3.00;99.90;;;;;;5088817;28;20479;-78
2023/01/23 07:36:22;;;;;;;5.40;2.93;;;3.00;99.90;;;;;;5088987;28;20406;-78
2023/01/23 07:38:48;;;;;;;6.30;3.03;;;3.10;99.90;;;;;;5071911;28;20406;-78
2023/01/23 07:41:13;;;;;;;6.17;3.20;;;3.10;99.90;;;;;;5088547;28;20448;-78
2023/01/23 07:43:39;;;;;;;4.47;3.17;;;3.10;99.90;;;;;;5087716;28;20552;-78
2023/01/23 07:46:05;;;;;;;5.05;2.97;;;3.10;99.90;;;;;;5088162;28;20428;-78
2023/01/23 07:48:30;;;;;;;6.10;4.30;;;3.10;99.90;;;;;;5088601;28;20406;-80
2023/01/23 07:51:00;;;;;;;7.97;5.93;;;3.10;99.90;;;;;;5088081;28;20414;-80
2023/01/23 07:53:25;;;;;;;5.68;3.78;;;3.10;99.90;;;;;;5088143;28;20488;-79
2023/01/23 07:55:51;;;;;;;5.63;3.53;;;3.10;99.90;;;;;;5087147;28;20801;-80
2023/01/23 07:58:16;;;;;;;5.40;3.07;;;3.10;99.90;;;;;;5075817;28;20459;-80
2023/01/23 08:00:42;;;;;;;5.40;2.65;;;3.10;99.90;;;;;;5088836;28;20776;-79
2023/01/23 08:03:08;;;;;;;3.97;2.58;;;3.10;99.90;;;;;;5090350;28;20939;-79
2023/01/23 08:05:33;;;;;;;6.73;5.33;;;3.20;99.90;;;;;;5090425;28;20737;-80
2023/01/23 08:07:59;;;;;;;6.20;4.10;;;3.20;99.90;;;;;;5088378;28;20406;-80
2023/01/23 08:10:24;;;;;;;7.83;5.17;;;3.20;99.90;;;;;;5088798;28;20941;-80
2023/01/23 08:12:50;;;;;;;9.97;6.77;;;3.20;99.90;;;;;;5088167;28;20450;-80
2023/01/23 08:15:16;;;;;;;11.80;7.25;;;3.20;99.90;;;;;;5089217;28;20406;-80
2023/01/23 08:17:41;;;;;;;12.13;8.23;;;3.20;99.90;;;;;;5088548;28;20795;-80
2023/01/23 08:20:09;;;;;;;11.97;8.33;;;3.20;99.90;;;;;;5090307;28;20405;-80
2023/01/23 08:22:39;;;;;;;15.63;9.27;;;3.20;99.90;;;;;;5089576;28;20994;-80
2023/01/23 08:25:09;;;;;;;16.45;9.30;;;3.30;99.90;;;;;;5088253;28;20463;-80
2023/01/23 08:27:35;;;;;;;13.63;8.82;;;3.20;99.90;;;;;;5088163;28;20406;-80
2023/01/23 08:30:01;;;;;;;12.38;8.77;;;3.30;99.90;;;;;;5088199;28;20598;-79
2023/01/23 08:32:27;;;;;;;15.07;10.03;;;3.20;99.90;;;;;;5087173;28;20409;-79
2023/01/23 08:34:53;;;;;;;13.43;9.10;;;3.30;99.90;;;;;;5087390;28;20402;-80
2023/01/23 08:37:19;;;;;;;15.88;9.13;;;3.30;99.90;;;;;;5088242;28;20461;-80
2023/01/23 08:39:45;;;;;;;14.20;9.68;;;3.30;99.90;;;;;;5070701;28;20499;-79
2023/01/23 08:42:11;;;;;;;13.50;9.20;;;3.30;99.90;;;;;;5087686;28;20398;-80
2023/01/23 08:44:36;;;;;;;13.13;9.07;;;3.30;99.90;;;;;;5088961;28;20405;-80
2023/01/23 08:47:02;;;;;;;16.00;9.57;;;3.30;99.90;;;;;;5072198;28;20772;-80
2023/01/23 08:49:28;;;;;;;12.43;9.18;;;3.30;99.90;;;;;;5092092;28;20420;-80
2023/01/23 08:51:55;;;;;;;13.40;9.25;;;3.30;99.90;;;;;;5090892;28;20410;-79
2023/01/23 08:54:21;;;;;;;14.32;8.95;;;3.30;99.90;;;;;;5070524;28;20406;-79
2023/01/23 08:56:46;;;;;;;14.27;9.07;;;3.30;99.90;;;;;;5078760;28;20432;-79
2023/01/23 08:59:12;;;;;;;14.23;10.67;;;3.30;99.90;;;;;;5083751;28;20402;-79
2023/01/23 09:01:38;;;;;;;17.25;12.00;;;3.30;99.90;;;;;;5098709;28;20410;-80
2023/01/23 09:04:03;;;;;;;16.97;11.17;;;3.30;99.90;;;;;;5099508;28;20408;-80
2023/01/23 09:06:29;;;;;;;16.70;11.60;;;3.30;99.90;;;;;;5070688;28;20489;-80
2023/01/23 09:08:55;;;;;;;17.42;11.65;;;3.30;99.90;;;;;;5087166;28;20441;-79
2023/01/23 09:11:22;;;;;;;17.17;11.10;;;3.30;99.90;;;;;;5087183;28;20402;-80
2023/01/23 09:13:47;;;;;;;15.70;10.25;;;3.40;99.90;;;;;;5086783;28;20442;-80
2023/01/23 09:16:13;;;;;;;15.30;9.73;;;3.40;99.90;;;;;;5070457;28;20456;-79
2023/01/23 09:18:39;;;;;;;16.63;11.10;;;3.40;99.90;;;;;;5069948;28;20440;-79
2023/01/23 09:21:07;;;;;;;17.75;13.38;;;3.40;99.90;;;;;;5087320;28;20402;-79
2023/01/23 09:23:33;;;;;;;17.70;11.23;;;3.40;99.90;;;;;;5087152;28;20409;-80
2023/01/23 09:26:07;;;;;;;16.25;12.00;;;3.40;99.90;;;;;;5069828;28;21008;-80
2023/01/23 09:28:34;;;;;;;18.90;12.20;;;3.40;99.90;;;;;;5086467;28;20476;-80
2023/01/23 09:31:09;;;;;;;15.48;10.27;;;3.50;99.90;;;;;;5087706;28;20459;-80
2023/01/23 09:33:36;;;;;;;16.92;10.63;;;3.50;99.90;;;;;;5086071;28;20406;-79
2023/01/23 09:36:03;;;;;;;16.85;10.13;;;3.50;99.90;;;;;;5087428;28;20966;-80
2023/01/23 09:38:32;;;;;;;15.68;10.50;;;3.50;99.90;;;;;;5087150;28;20440;-80
2023/01/23 09:40:59;;;;;;;18.80;11.60;;;3.50;99.90;;;;;;5069883;28;21771;-79
2023/01/23 09:43:40;;;;;;;17.08;11.50;;;3.50;99.90;;;;;;5086839;28;20402;-80
2023/01/23 09:46:09;;;;;;;17.10;11.32;;;3.50;99.90;;;;;;5086930;28;20406;-79
2023/01/23 09:48:46;;;;;;;16.90;11.32;;;3.60;99.90;;;;;;5087462;28;20418;-80
2023/01/23 09:51:21;;;;;;;27.83;19.73;;;3.60;99.90;;;;;;5089794;28;20429;-79
2023/01/23 09:53:47;;;;;;;18.52;12.77;;;3.60;99.90;;;;;;5087764;28;20444;-80
2023/01/23 09:56:40;;;;;;;18.58;12.70;;;3.60;99.90;;;;;;5087786;28;20405;-80
2023/01/23 09:59:09;;;;;;;17.73;12.40;;;3.60;99.90;;;;;;5099851;28;20412;-79
2023/01/23 10:01:36;;;;;;;15.77;11.00;;;3.60;99.90;;;;;;5106343;28;20420;-80
2023/01/23 10:04:03;;;;;;;18.70;12.25;;;3.70;99.90;;;;;;5104368;28;20420;-80
2023/01/23 10:06:38;;;;;;;18.23;11.90;;;3.70;99.90;;;;;;5069936;28;20401;-79
2023/01/23 10:09:22;;;;;;;16.95;11.27;;;3.70;99.90;;;;;;5086498;28;20958;-80
2023/01/23 10:12:19;;;;;;;17.35;11.32;;;3.80;99.90;;;;;;5086350;28;20547;-79
2023/01/23 10:15:04;;;;;;;17.30;11.20;;;3.80;99.90;;;;;;5076342;28;20468;-80
2023/01/23 10:17:47;;;;;;;17.13;10.77;;;3.80;99.90;;;;;;5089835;28;20437;-80
2023/01/23 10:20:29;;;;;;;17.33;10.40;;;3.80;99.90;;;;;;5074823;28;20502;-80
2023/01/23 10:23:31;;;;;;;15.25;10.20;;;3.80;99.90;;;;;;5110383;28;20465;-79
2023/01/23 10:25:57;;;;;;;15.97;10.97;;;3.80;99.90;;;;;;5078805;28;20418;-80
2023/01/23 10:28:37;;;;;;;18.08;12.20;;;3.90;99.90;;;;;;5090876;28;20455;-80
2023/01/23 10:31:40;;;;;;;14.85;10.40;;;3.90;99.90;;;;;;5090955;28;20457;-80
2023/01/23 10:34:09;;;;;;;24.33;16.48;;;3.90;99.90;;;;;;5080053;28;20418;-79
2023/01/23 10:37:00;;;;;;;22.50;16.27;;;3.90;99.90;;;;;;5090288;28;20831;-80
2023/01/23 10:39:30;;;;;;;20.83;13.07;;;3.90;99.90;;;;;;5073622;28;20410;-79
2023/01/23 10:41:55;;;;;;;19.20;12.60;;;3.90;99.90;;;;;;5089997;28;21081;-79
2023/01/23 10:44:21;;;;;;;16.77;10.70;;;3.90;99.90;;;;;;5091012;28;20511;-79
2023/01/23 10:46:51;;;;;;;17.15;11.15;;;3.90;99.90;;;;;;5090341;28;20412;-79
2023/01/23 10:49:33;;;;;;;16.80;10.23;;;4.00;99.90;;;;;;5075000;28;20816;-79
2023/01/23 10:52:00;;;;;;;15.85;10.45;;;4.00;99.90;;;;;;5073871;28;20457;-79
2023/01/23 10:54:27;;;;;;;17.75;11.27;;;4.00;99.90;;;;;;5091417;28;20413;-79
2023/01/23 10:57:02;;;;;;;17.80;10.43;;;4.00;99.90;;;;;;5081098;28;20459;-80
2023/01/23 10:59:32;;;;;;;18.37;12.17;;;4.00;99.90;;;;;;5086692;28;20420;-80
2023/01/23 11:01:59;;;;;;;17.95;12.20;;;4.00;99.90;;;;;;5089929;28;20915;-80
2023/01/23 11:04:28;;;;;;;17.35;11.63;;;4.00;99.90;;;;;;5089912;28;20410;-79
2023/01/23 11:07:02;;;;;;;19.02;10.70;;;4.10;99.90;;;;;;5090241;28;20493;-80
2023/01/23 11:09:29;;;;;;;16.80;10.60;;;4.10;99.90;;;;;;5089643;28;20414;-79
2023/01/23 11:11:59;;;;;;;16.70;10.10;;;4.10;99.90;;;;;;5071865;28;20429;-79
2023/01/23 11:14:25;;;;;;;18.02;12.27;;;4.10;99.90;;;;;;5088938;28;20911;-79
2023/01/23 11:17:22;;;;;;;15.63;10.65;;;4.10;99.90;;;;;;5088849;28;20422;-80
2023/01/23 11:19:52;;;;;;;17.40;10.70;;;4.20;99.90;;;;;;5071119;28;21415;-79
2023/01/23 11:22:28;;;;;;;16.17;10.80;;;4.20;99.90;;;;;;5089020;28;20406;-79
2023/01/23 11:24:54;;;;;;;18.90;11.68;;;4.20;99.90;;;;;;5088222;28;20449;-79
2023/01/23 11:27:27;;;;;;;14.45;10.25;;;4.30;99.90;;;;;;5072531;28;20780;-80
2023/01/23 11:30:07;;;;;;;14.60;10.45;;;4.30;99.90;;;;;;5072275;28;20409;-79
2023/01/23 11:33:07;;;;;;;16.05;10.45;;;4.30;99.90;;;;;;5078448;28;21191;-79
2023/01/23 11:36:06;;;;;;;16.13;10.27;;;4.30;99.90;;;;;;5067198;28;20411;-79
2023/01/23 11:38:43;;;;;;;15.35;9.70;;;4.40;99.90;;;;;;5087977;28;20468;-80
2023/01/23 11:41:13;;;;;;;15.45;9.98;;;4.40;99.90;;;;;;5088374;28;20436;-79
2023/01/23 11:43:40;;;;;;;14.40;10.18;;;4.40;99.90;;;;;;5087066;28;20394;-79
2023/01/23 11:46:24;;;;;;;13.83;9.93;;;4.50;99.90;;;;;;5090130;28;20404;-79
2023/01/23 11:49:22;;;;;;;16.48;10.52;;;4.50;99.90;;;;;;5089095;28;20414;-79
2023/01/23 11:52:09;;;;;;;17.05;10.73;;;4.50;99.90;;;;;;5089095;28;20414;-79
2023/01/23 11:55:30;;;;;;;17.17;11.02;;;4.50;99.90;;;;;;5090326;28;20426;-80
2023/01/23 11:58:14;;;;;;;17.15;11.15;;;4.50;99.90;;;;;;5024606;28;20437;-79
2023/01/23 12:00:56;;;;;;;14.93;10.50;;;4.60;99.90;;;;;;5088649;28;20455;-80
2023/01/23 12:03:35;;;;;;;14.98;10.10;;;4.60;99.90;;;;;;5099237;28;20410;-80
2023/01/23 12:06:33;;;;;;;14.53;9.80;;;4.70;99.90;;;;;;5088654;28;20418;-80
2023/01/23 12:09:17;;;;;;;15.00;10.40;;;4.70;99.90;;;;;;5088349;28;20771;-79
2023/01/23 12:12:11;;;;;;;14.20;9.63;;;4.80;99.90;;;;;;5088562;28;21089;-79
2023/01/23 12:15:02;;;;;;;14.67;10.13;;;4.80;99.90;;;;;;5077420;28;20421;-80
2023/01/23 12:17:54;;;;;;;14.18;9.85;;;4.80;99.90;;;;;;5088020;28;20445;-80
2023/01/23 12:20:40;;;;;;;12.48;8.55;;;4.80;99.90;;;;;;5079099;28;20429;-79
2023/01/23 12:23:32;;;;;;;13.07;8.88;;;4.80;99.90;;;;;;5088195;28;20768;-79
2023/01/23 12:26:10;;;;;;;11.67;8.27;;;4.80;99.90;;;;;;5076360;28;20475;-79
2023/01/23 12:29:07;;;;;;;12.73;8.75;;;4.80;99.90;;;;;;5089251;28;20471;-79
2023/01/23 12:31:39;;;;;;;11.82;7.93;;;4.80;99.90;;;;;;5072374;28;20417;-80
2023/01/23 12:34:29;;;;;;;11.35;7.55;;;4.80;99.90;;;;;;5087930;28;20409;-80
2023/01/23 12:37:15;;;;;;;10.80;8.10;;;4.80;99.90;;;;;;5072560;28;20517;-79
2023/01/23 12:40:02;;;;;;;25.35;15.10;;;4.80;99.90;;;;;;5090740;28;20468;-80
2023/01/23 12:42:43;;;;;;;56.10;28.92;;;4.80;99.90;;;;;;5087981;28;20514;-79
2023/01/23 12:45:14;;;;;;;61.83;39.72;;;4.70;99.90;;;;;;5086779;28;20413;-79
2023/01/23 12:47:47;;;;;;;15.38;11.48;;;4.70;99.90;;;;;;5071854;28;20426;-79
2023/01/23 12:50:37;;;;;;;14.82;9.98;;;4.70;99.90;;;;;;5070887;28;20420;-80
2023/01/23 12:53:12;;;;;;;12.27;9.75;;;4.70;99.90;;;;;;5086660;28;20414;-79
2023/01/23 12:55:49;;;;;;;11.95;10.35;;;4.70;99.90;;;;;;5070710;28;20410;-79
2023/01/23 12:58:17;;;;;;;13.67;9.37;;;4.70;99.90;;;;;;5074396;28;20532;-80
2023/01/23 13:00:57;;;;;;;11.33;8.30;;;4.60;99.90;;;;;;5087499;28;20907;-79
2023/01/23 13:03:50;;;;;;;13.43;9.80;;;4.60;99.90;;;;;;5070809;28;20433;-79
2023/01/23 13:06:34;;;;;;;11.97;8.97;;;4.60;99.90;;;;;;5070034;28;20464;-79
2023/01/23 13:09:21;;;;;;;11.30;8.53;;;4.60;99.90;;;;;;5087452;28;20414;-79